Time;durP1;ratioP1;P1;durP2;ratioP2;P2;SDS_P1;SDS_P2;PMS_P1;PMS_P2;Temp;Humidity;BMP_temperature;BMP_pressure;BME280_temperature;BME280_humidity;BME280_pressure;Samples;Min_cycle;Max_cycle;Signal;HPM_P1;HPM_P2
2022/02/06 06:54:23;;;;;;;14.25;8.10;;;;;;;;;;6154192;23;20344;-84
2022/02/06 06:57:01;;;;;;;12.30;8.43;;;;;;;;;;6185518;23;20009;-84
2022/02/06 07:00:22;;;;;;;13.80;7.82;;;;;;;;;;6185890;23;20111;-89
2022/02/06 07:04:41;;;;;;;12.25;8.05;;;;;;;;;;6190761;23;20020;-87
2022/02/06 07:07:07;;;;;;;10.95;6.30;;;;;;;;;;6185987;23;20317;-87
2022/02/06 07:09:32;;;;;;;10.43;6.72;;;;;;;;;;6187392;23;20009;-87
2022/02/06 07:11:57;;;;;;;18.23;10.52;;;;;;;;;;6187564;23;20479;-85
2022/02/06 07:14:25;;;;;;;13.68;8.13;;;;;;;;;;6187830;23;20424;-85
2022/02/06 07:16:50;;;;;;;13.60;7.97;;;;;;;;;;6187507;23;20005;-86
2022/02/06 07:19:16;;;;;;;13.27;8.18;;;;;;;;;;6187489;23;20425;-87
2022/02/06 15:29:29;;;;;;;84.33;45.93;;;;;;;;;;6210507;23;20017;-89
2022/02/06 15:31:55;;;;;;;81.65;42.70;;;;;;;;;;6185790;23;20024;-88
2022/02/06 15:34:21;;;;;;;78.15;43.65;;;;;;;;;;6191128;23;20028;-87
2022/02/06 15:36:51;;;;;;;78.72;42.88;;;;;;;;;;6187182;23;20432;-88
2022/02/06 15:39:23;;;;;;;81.57;43.88;;;;;;;;;;6187258;23;20009;-85
2022/02/06 15:41:53;;;;;;;79.85;43.85;;;;;;;;;;6187368;23;20001;-87
2022/02/06 15:44:19;;;;;;;78.90;43.33;;;;;;;;;;6187411;23;20438;-88
2022/02/06 15:46:44;;;;;;;91.30;49.05;;;;;;;;;;6187266;23;20033;-87
2022/02/06 15:49:10;;;;;;;93.13;49.00;;;;;;;;;;6185600;23;20005;-87
2022/02/06 15:51:35;;;;;;;78.05;44.75;;;;;;;;;;6187224;23;20032;-88
2022/02/06 15:54:02;;;;;;;84.63;45.35;;;;;;;;;;6185296;23;20040;-87
2022/02/06 15:56:27;;;;;;;87.05;46.60;;;;;;;;;;6187721;23;20435;-87
2022/02/06 15:58:53;;;;;;;93.13;48.75;;;;;;;;;;6187381;23;19997;-88
2022/02/06 16:01:18;;;;;;;94.95;48.72;;;;;;;;;;6185371;23;20005;-88
2022/02/06 16:03:44;;;;;;;89.95;48.15;;;;;;;;;;6186770;23;20409;-89
2022/02/06 16:06:09;;;;;;;90.55;48.70;;;;;;;;;;6185553;23;20092;-89
2022/02/06 16:08:36;;;;;;;86.43;47.85;;;;;;;;;;6186933;23;20008;-89
2022/02/06 16:11:01;;;;;;;89.80;48.40;;;;;;;;;;6186967;23;20433;-88
2022/02/06 16:13:27;;;;;;;84.57;46.60;;;;;;;;;;6185320;23;20059;-88
2022/02/06 16:15:52;;;;;;;91.55;49.42;;;;;;;;;;6185693;23;20012;-88
2022/02/06 16:18:17;;;;;;;95.72;53.13;;;;;;;;;;6185586;23;20396;-87
2022/02/06 16:20:44;;;;;;;90.63;51.00;;;;;;;;;;6187075;23;20431;-87
2022/02/06 16:23:10;;;;;;;83.28;46.50;;;;;;;;;;6187045;23;20000;-86
2022/02/06 16:25:36;;;;;;;83.65;46.65;;;;;;;;;;6186997;23;20012;-87
2022/02/06 16:39:46;;;;;;;85.30;45.40;;;;;;;;;;6161045;23;20048;-90
2022/02/06 16:42:17;;;;;;;88.93;46.97;;;;;;;;;;6185578;23;20013;-89
2022/02/06 16:44:43;;;;;;;91.30;46.90;;;;;;;;;;6186999;23;20024;-89
2022/02/06 16:47:09;;;;;;;88.20;47.88;;;;;;;;;;6187162;23;20059;-87
2022/02/06 18:51:39;;;;;;;136.00;67.82;;;;;;;;;;6171119;23;20009;-95
2022/02/06 20:46:41;;;;;;;138.50;66.95;;;;;;;;;;6132914;23;21267;-90
2022/02/06 20:49:07;;;;;;;130.88;64.82;;;;;;;;;;6186726;23;20025;-91
2022/02/06 20:51:33;;;;;;;140.07;66.70;;;;;;;;;;6187578;23;20001;-91
2022/02/06 20:53:59;;;;;;;132.65;64.40;;;;;;;;;;6185928;23;20016;-92
2022/02/06 20:56:27;;;;;;;147.20;74.45;;;;;;;;;;6186453;23;20442;-92
2022/02/06 20:58:54;;;;;;;134.77;65.90;;;;;;;;;;6158126;23;20006;-93
2022/02/06 21:01:22;;;;;;;130.68;65.82;;;;;;;;;;6156153;23;20021;-95
2022/02/06 21:03:53;;;;;;;135.38;67.93;;;;;;;;;;6156571;23;20009;-93
2022/02/06 21:06:19;;;;;;;136.50;65.93;;;;;;;;;;6156513;23;20005;-96
2022/02/06 21:08:45;;;;;;;136.20;67.70;;;;;;;;;;6158417;23;20421;-93
2022/02/06 21:11:12;;;;;;;141.02;66.95;;;;;;;;;;6156616;23;20005;-93
2022/02/06 21:13:40;;;;;;;132.95;67.32;;;;;;;;;;6157520;23;20005;-92
2022/02/06 21:16:06;;;;;;;132.23;65.90;;;;;;;;;;6155464;23;20006;-92
2022/02/06 21:18:31;;;;;;;133.45;66.18;;;;;;;;;;6157408;23;20064;-92
2022/02/06 21:20:58;;;;;;;136.88;66.47;;;;;;;;;;6155670;23;20042;-92
2022/02/06 21:23:25;;;;;;;141.90;67.60;;;;;;;;;;6157134;23;20002;-93
2022/02/06 21:25:54;;;;;;;139.75;67.10;;;;;;;;;;6157798;23;20131;-93
2022/02/06 21:28:20;;;;;;;141.77;68.30;;;;;;;;;;6155761;23;19997;-92
2022/02/06 21:30:47;;;;;;;141.88;67.00;;;;;;;;;;6154191;23;20015;-92
2022/02/06 21:33:13;;;;;;;135.02;65.75;;;;;;;;;;6157366;23;20074;-95
2022/02/06 21:35:40;;;;;;;135.07;67.05;;;;;;;;;;6156728;23;20010;-95
2022/02/06 21:38:07;;;;;;;138.85;66.05;;;;;;;;;;6156176;23;20009;-93
2022/02/06 21:40:33;;;;;;;132.40;63.72;;;;;;;;;;6156246;23;20080;-92
2022/02/06 21:43:00;;;;;;;129.48;64.10;;;;;;;;;;6156351;23;20068;-92
2022/02/06 21:45:26;;;;;;;128.80;63.97;;;;;;;;;;6156418;23;20088;-93
2022/02/06 21:47:52;;;;;;;127.68;61.78;;;;;;;;;;6155498;23;20017;-93
2022/02/06 21:50:21;;;;;;;134.13;64.18;;;;;;;;;;6156523;23;20013;-93
2022/02/06 21:52:47;;;;;;;132.45;62.45;;;;;;;;;;6156111;23;20084;-90
2022/02/06 21:55:13;;;;;;;125.40;61.42;;;;;;;;;;6156230;23;20006;-93
2022/02/06 21:57:40;;;;;;;125.40;60.45;;;;;;;;;;6157818;23;20006;-92
2022/02/06 22:00:08;;;;;;;133.35;61.67;;;;;;;;;;6157091;23;20013;-91
2022/02/06 22:02:33;;;;;;;147.07;64.15;;;;;;;;;;6156328;23;20002;-92
2022/02/06 22:04:59;;;;;;;141.93;62.85;;;;;;;;;;6156234;23;20080;-92
2022/02/06 22:07:55;;;;;;;149.15;65.22;;;;;;;;;;6156119;23;20009;-91
2022/02/06 22:10:31;;;;;;;150.52;67.18;;;;;;;;;;6156766;23;20013;-94
2022/02/06 22:29:16;;;;;;;151.02;63.17;;;;;;;;;;6129207;23;20002;-94
2022/02/06 22:31:42;;;;;;;141.00;59.50;;;;;;;;;;6155455;23;20028;-93
2022/02/06 22:34:08;;;;;;;138.02;62.30;;;;;;;;;;6156817;23;20001;-92
2022/02/06 22:36:35;;;;;;;135.63;60.47;;;;;;;;;;6157836;23;20476;-93
2022/02/06 22:39:02;;;;;;;139.73;59.10;;;;;;;;;;6157287;23;20010;-93
2022/02/06 22:41:28;;;;;;;129.25;59.67;;;;;;;;;;6157559;23;19997;-93
2022/02/06 22:43:55;;;;;;;145.40;60.42;;;;;;;;;;6159077;23;20013;-93
2022/02/06 22:46:22;;;;;;;131.77;60.22;;;;;;;;;;6157414;23;20005;-93
2022/02/06 22:48:48;;;;;;;131.27;58.13;;;;;;;;;;6157054;23;20089;-91
2022/02/06 22:51:14;;;;;;;133.57;58.28;;;;;;;;;;6158769;23;20076;-94
2022/02/06 22:53:44;;;;;;;124.85;58.58;;;;;;;;;;6157260;23;20447;-93
2022/02/06 22:56:11;;;;;;;129.77;57.35;;;;;;;;;;6157358;23;20006;-95
2022/02/06 22:58:36;;;;;;;139.75;60.75;;;;;;;;;;6159082;23;20004;-93
2022/02/06 23:01:02;;;;;;;136.27;57.60;;;;;;;;;;6157578;23;20005;-93
2022/02/06 23:03:32;;;;;;;134.25;59.38;;;;;;;;;;6157442;23;20043;-92
2022/02/06 23:06:03;;;;;;;149.02;63.55;;;;;;;;;;6157327;23;20012;-92
2022/02/06 23:08:28;;;;;;;147.30;62.80;;;;;;;;;;6158124;23;20017;-93
2022/02/06 23:10:54;;;;;;;152.50;65.03;;;;;;;;;;6157339;23;20410;-91
2022/02/06 23:13:19;;;;;;;144.73;62.67;;;;;;;;;;6157390;23;20027;-92
2022/02/06 23:15:45;;;;;;;148.45;63.65;;;;;;;;;;6159019;23;20009;-94
2022/02/06 23:18:10;;;;;;;149.68;64.05;;;;;;;;;;6157280;23;20009;-93
2022/02/06 23:20:37;;;;;;;143.57;62.95;;;;;;;;;;6158518;23;20001;-92
2022/02/06 23:23:04;;;;;;;147.57;65.25;;;;;;;;;;6157318;23;20005;-93
2022/02/06 23:25:29;;;;;;;141.30;60.85;;;;;;;;;;6157292;23;20428;-93
2022/02/06 23:27:55;;;;;;;152.38;62.83;;;;;;;;;;6156998;23;20005;-94
2022/02/06 23:30:21;;;;;;;147.13;61.80;;;;;;;;;;6158388;23;20055;-96
2022/02/06 23:32:48;;;;;;;139.55;61.53;;;;;;;;;;6158267;23;20008;-94
